Time;durP1;ratioP1;P1;durP2;ratioP2;P2;SDS_P1;SDS_P2;PMS_P1;PMS_P2;Temp;Humidity;BMP_temperature;BMP_pressure;BME280_temperature;BME280_humidity;BME280_pressure;Samples;Min_cycle;Max_cycle;Signal;HPM_P1;HPM_P2
2021/08/23 00:02:16;;;;;;;2.13;1.10;;;;;;;20.49;64.70;101610.88;5132245;28;20032;-60
2021/08/23 00:04:42;;;;;;;1.65;1.33;;;;;;;20.47;64.70;101611.06;5132173;28;20035;-60
2021/08/23 00:07:08;;;;;;;4.15;1.10;;;;;;;20.49;64.96;101609.03;5132151;28;20035;-60
2021/08/23 00:09:33;;;;;;;2.33;1.23;;;;;;;20.46;64.74;101612.09;5132196;28;20027;-60
2021/08/23 00:12:00;;;;;;;2.22;1.15;;;;;;;20.46;64.90;101606.72;5131936;28;20035;-60
2021/08/23 00:14:26;;;;;;;1.40;1.05;;;;;;;20.45;64.92;101616.63;5113743;28;20038;-61
2021/08/23 00:16:53;;;;;;;2.65;1.20;;;;;;;20.45;64.97;101616.63;5132069;28;20027;-59
2021/08/23 00:19:22;;;;;;;2.20;1.00;;;;;;;20.45;65.18;101616.63;5114162;27;20389;-59
2021/08/23 00:21:50;;;;;;;1.40;1.10;;;;;;;20.42;64.94;101614.31;5136425;27;20061;-61
2021/08/23 00:24:23;;;;;;;2.78;1.17;;;;;;;20.42;64.97;101613.47;5136593;27;20042;-59
2021/08/23 00:26:53;;;;;;;1.00;0.90;;;;;;;20.42;65.78;101608.94;5136178;27;20450;-60
2021/08/23 00:29:19;;;;;;;1.45;1.00;;;;;;;20.45;65.68;101607.72;5135966;27;20076;-60
2021/08/23 00:31:46;;;;;;;1.30;0.98;;;;;;;20.47;65.78;101604.84;5135614;27;20031;-59
2021/08/23 00:34:12;;;;;;;2.63;1.08;;;;;;;20.45;65.90;101602.34;5134163;27;20049;-59
2021/08/23 00:36:38;;;;;;;2.40;1.08;;;;;;;20.43;65.84;101601.72;5136002;27;20043;-60
2021/08/23 00:39:08;;;;;;;2.08;0.98;;;;;;;20.43;65.70;101604.41;5135906;27;20400;-60
2021/08/23 00:41:35;;;;;;;2.58;1.05;;;;;;;20.45;65.74;101602.34;5100919;27;20039;-59
2021/08/23 00:44:01;;;;;;;7.60;1.25;;;;;;;20.44;65.76;101606.91;5135786;27;20246;-59
2021/08/23 00:46:27;;;;;;;3.22;1.00;;;;;;;20.45;65.80;101615.78;5135953;27;20249;-59
2021/08/23 00:48:53;;;;;;;1.20;1.10;;;;;;;20.42;65.89;101608.94;5135557;27;20027;-60
2021/08/23 00:51:20;;;;;;;1.38;1.08;;;;;;;20.42;65.92;101614.31;5135607;27;20042;-60
2021/08/23 00:53:47;;;;;;;1.10;1.00;;;;;;;20.43;65.87;101615.16;5135437;27;20043;-59
2021/08/23 00:56:15;;;;;;;1.70;0.95;;;;;;;20.43;65.61;101615.16;5135808;27;20419;-59
2021/08/23 00:58:41;;;;;;;1.63;0.90;;;;;;;20.44;65.76;101614.97;5133053;27;20489;-59
2021/08/23 01:01:56;;;;;;;1.95;1.15;;;;;;;20.42;65.86;101622.34;5133896;27;20027;-59
2021/08/23 01:04:33;;;;;;;4.45;1.33;;;;;;;20.42;65.99;101624.19;5113104;27;20127;-59
2021/08/23 01:07:03;;;;;;;2.35;1.13;;;;;;;20.40;66.05;101619.00;5135473;27;20042;-59
2021/08/23 01:09:35;;;;;;;5.85;1.10;;;;;;;20.41;65.82;101622.53;5116947;27;20031;-60
2021/08/23 01:12:04;;;;;;;3.42;1.02;;;;;;;20.39;65.86;101625.41;5135142;27;20063;-60
2021/08/23 01:14:30;;;;;;;2.03;1.10;;;;;;;20.39;65.93;101627.25;5135436;27;20435;-60
2021/08/23 01:16:56;;;;;;;4.28;1.05;;;;;;;20.38;65.93;101622.91;5135055;27;20031;-61
2021/08/23 01:19:23;;;;;;;0.93;0.82;;;;;;;20.38;65.93;101623.75;5135095;27;20028;-60
2021/08/23 01:21:51;;;;;;;1.50;0.80;;;;;;;20.39;65.80;101635.31;5135045;27;20134;-60
2021/08/23 01:24:17;;;;;;;1.60;0.90;;;;;;;20.38;65.60;101631.81;5135016;27;20396;-60
2021/08/23 01:26:46;;;;;;;2.03;0.90;;;;;;;20.37;65.58;101624.75;5134871;27;20032;-60
2021/08/23 01:29:16;;;;;;;1.15;0.90;;;;;;;20.37;65.43;101629.31;5134975;27;20031;-59
2021/08/23 01:31:52;;;;;;;1.65;1.00;;;;;;;20.35;65.23;101624.13;5130347;27;20036;-59
2021/08/23 01:34:19;;;;;;;1.67;1.20;;;;;;;20.36;65.28;101625.78;5114279;28;20524;-60
2021/08/23 01:36:44;;;;;;;0.88;0.85;;;;;;;20.35;65.07;101634.00;5114351;28;20031;-59
2021/08/23 01:39:10;;;;;;;2.10;0.95;;;;;;;20.34;65.08;101630.47;5114117;28;20040;-59
2021/08/23 01:41:36;;;;;;;2.05;0.93;;;;;;;20.34;65.18;101630.47;5114644;28;20110;-60
2021/08/23 01:44:02;;;;;;;2.83;0.90;;;;;;;20.33;65.00;101635.03;5114187;28;20043;-60
2021/08/23 01:46:31;;;;;;;2.33;1.02;;;;;;;20.35;65.07;101642.06;5113954;28;20489;-59
2021/08/23 01:49:05;;;;;;;5.13;1.02;;;;;;;20.33;64.86;101642.25;5113892;28;20035;-59
2021/08/23 01:51:30;;;;;;;2.17;0.88;;;;;;;20.32;64.91;101633.34;5113907;28;20039;-59
2021/08/23 01:53:57;;;;;;;1.05;0.80;;;;;;;20.32;64.92;101637.91;5113704;28;20480;-60
2021/08/23 01:56:23;;;;;;;1.80;0.98;;;;;;;20.29;64.72;101632.88;5113725;28;20050;-59
2021/08/23 01:58:49;;;;;;;2.50;0.90;;;;;;;20.29;64.67;101646.31;5093701;28;20459;-59
2021/08/23 02:01:14;;;;;;;2.50;0.70;;;;;;;20.29;64.74;101647.13;5093369;28;20054;-60
2021/08/23 02:03:40;;;;;;;2.10;1.00;;;;;;;20.28;64.65;101641.94;5075247;28;20046;-61
2021/08/23 02:06:06;;;;;;;1.77;1.00;;;;;;;20.27;64.55;101637.59;5093235;28;20031;-59
2021/08/23 02:08:31;;;;;;;2.45;0.90;;;;;;;20.27;64.55;101637.59;5093293;28;20386;-59
2021/08/23 02:10:57;;;;;;;3.20;1.02;;;;;;;20.28;64.54;101636.56;5093093;28;20043;-60
2021/08/23 02:13:23;;;;;;;1.80;1.00;;;;;;;20.27;64.25;101641.13;5075226;28;20036;-60
2021/08/23 02:15:49;;;;;;;1.00;0.85;;;;;;;20.26;64.31;101649.34;5092967;28;20551;-60
2021/08/23 02:18:14;;;;;;;1.55;0.95;;;;;;;20.26;63.96;101654.72;5093268;28;20537;-60
2021/08/23 02:20:40;;;;;;;3.80;0.93;;;;;;;20.22;63.39;101656.09;5092914;28;20036;-60
2021/08/23 02:23:06;;;;;;;2.83;1.00;;;;;;;20.19;63.53;101655.41;5074751;28;20043;-60
2021/08/23 02:25:32;;;;;;;1.42;0.82;;;;;;;20.17;63.34;101657.47;5092894;28;20036;-59
2021/08/23 02:27:58;;;;;;;1.52;0.85;;;;;;;20.16;63.05;101655.78;5092902;28;20112;-59
2021/08/23 02:30:23;;;;;;;1.40;0.82;;;;;;;20.13;62.92;101663.38;5074976;28;20093;-59
2021/08/23 02:32:50;;;;;;;2.40;0.90;;;;;;;20.12;62.96;101672.41;5105618;28;20358;-60
2021/08/23 02:35:16;;;;;;;4.00;0.93;;;;;;;20.13;63.37;101668.75;5112986;28;20123;-60
2021/08/23 02:37:42;;;;;;;3.83;0.82;;;;;;;20.12;63.43;101670.56;5112937;28;20030;-59
2021/08/23 02:40:08;;;;;;;2.00;0.73;;;;;;;20.14;63.04;101675.75;5112886;28;20032;-59
2021/08/23 02:42:34;;;;;;;2.35;0.80;;;;;;;20.13;63.38;101668.75;5113479;28;20032;-59
2021/08/23 02:45:00;;;;;;;1.70;0.70;;;;;;;20.12;63.41;101670.56;5113098;28;20468;-59
2021/08/23 02:47:25;;;;;;;0.85;0.68;;;;;;;20.13;63.58;101674.09;5112867;28;20035;-60
2021/08/23 02:49:51;;;;;;;1.02;0.70;;;;;;;20.14;63.71;101673.09;5112679;28;20028;-59
2021/08/23 02:52:17;;;;;;;1.15;0.73;;;;;;;20.11;63.83;101671.59;5112569;28;20039;-60
2021/08/23 02:54:42;;;;;;;1.00;0.60;;;;;;;20.12;63.92;101665.22;5094424;28;20039;-58
2021/08/23 02:57:08;;;;;;;0.88;0.70;;;;;;;20.11;63.89;101657.34;5118217;27;20088;-59
2021/08/23 02:59:34;;;;;;;1.88;0.77;;;;;;;20.10;63.57;101659.19;5132990;27;20039;-59
2021/08/23 03:01:59;;;;;;;2.38;0.65;;;;;;;20.10;63.60;101659.19;5133104;27;20035;-59
2021/08/23 03:04:25;;;;;;;1.95;0.70;;;;;;;20.08;63.63;101661.22;5132992;27;20031;-59
2021/08/23 03:06:50;;;;;;;0.95;0.65;;;;;;;20.08;63.82;101659.34;5132932;27;20493;-59
2021/08/23 03:09:16;;;;;;;1.10;0.73;;;;;;;20.06;63.80;101656.03;5132909;27;20397;-59
2021/08/23 03:11:42;;;;;;;1.85;0.80;;;;;;;20.07;63.79;101656.84;5132775;27;20034;-59
2021/08/23 03:14:07;;;;;;;1.63;0.80;;;;;;;20.05;63.84;101651.66;5132842;27;20524;-60
2021/08/23 03:16:33;;;;;;;1.23;0.68;;;;;;;20.05;63.72;101658.91;5114705;27;20116;-59
2021/08/23 03:18:59;;;;;;;2.60;1.25;;;;;;;20.03;63.62;101652.84;5132788;27;20039;-59
2021/08/23 03:21:25;;;;;;;4.57;0.80;;;;;;;20.04;63.68;101655.38;5132676;27;20042;-58
2021/08/23 03:23:51;;;;;;;2.60;0.77;;;;;;;20.03;63.61;101651.03;5110748;27;20024;-59
2021/08/23 03:26:17;;;;;;;2.55;0.50;;;;;;;20.03;63.81;101648.34;5123370;27;20034;-59
2021/08/23 03:28:43;;;;;;;1.63;0.70;;;;;;;20.02;63.85;101649.31;5120499;27;20040;-59
2021/08/23 03:31:09;;;;;;;0.98;0.82;;;;;;;20.02;63.80;101649.31;5112006;28;20046;-59
2021/08/23 03:33:35;;;;;;;1.42;0.70;;;;;;;20.02;63.81;101649.31;5128901;27;20043;-59
2021/08/23 03:36:00;;;;;;;0.50;0.50;;;;;;;20.03;63.81;101652.84;5132513;27;20043;-59
2021/08/23 03:38:27;;;;;;;1.05;0.50;;;;;;;20.01;63.96;101646.78;5132484;27;20027;-59
2021/08/23 03:40:53;;;;;;;1.30;0.57;;;;;;;20.01;63.60;101655.69;5107494;28;20024;-60
2021/08/23 03:43:18;;;;;;;1.33;0.70;;;;;;;20.01;63.84;101647.63;5111891;28;20032;-59
2021/08/23 03:45:44;;;;;;;0.88;0.60;;;;;;;20.00;63.88;101655.88;5112108;28;20452;-59
2021/08/23 03:48:11;;;;;;;0.80;0.60;;;;;;;19.98;63.94;101656.03;5112054;28;20381;-60
2021/08/23 03:50:36;;;;;;;1.88;0.70;;;;;;;19.99;63.66;101656.88;5111823;28;20039;-59
2021/08/23 03:53:02;;;;;;;0.77;0.60;;;;;;;19.96;63.67;101647.31;5111683;28;20504;-59
2021/08/23 03:55:28;;;;;;;4.75;0.77;;;;;;;19.97;63.67;101654.38;5111223;28;20057;-58
2021/08/23 03:57:53;;;;;;;1.95;0.90;;;;;;;19.98;63.64;101655.19;5117593;28;20401;-60
2021/08/23 04:00:19;;;;;;;1.48;0.80;;;;;;;19.96;63.44;101652.69;5132266;28;20042;-59
2021/08/23 04:02:48;;;;;;;0.57;0.50;;;;;;;19.96;63.35;101658.91;5132145;28;20046;-60
2021/08/23 04:05:13;;;;;;;2.13;0.70;;;;;;;19.96;63.20;101652.69;5132141;28;20035;-60
2021/08/23 04:07:39;;;;;;;9.48;1.23;;;;;;;19.96;63.27;101658.06;5132125;28;20080;-59
2021/08/23 04:10:06;;;;;;;0.77;0.50;;;;;;;19.94;63.17;101658.25;5113845;28;20039;-60
2021/08/23 04:12:31;;;;;;;5.75;0.57;;;;;;;19.92;63.11;101656.75;5132046;28;20533;-58
2021/08/23 04:14:59;;;;;;;2.33;0.70;;;;;;;19.91;63.12;101661.28;5132106;28;20080;-59
2021/08/23 04:17:25;;;;;;;0.77;0.60;;;;;;;19.90;63.29;101654.25;5113687;28;20040;-60
2021/08/23 04:19:50;;;;;;;2.05;0.90;;;;;;;19.89;63.20;101660.59;5113797;28;20039;-59
2021/08/23 04:22:16;;;;;;;1.75;1.00;;;;;;;19.88;63.12;101655.41;5132100;28;20032;-59
2021/08/23 04:24:42;;;;;;;1.33;0.63;;;;;;;19.83;62.25;101655.94;5131980;28;20031;-59
2021/08/23 04:27:07;;;;;;;0.68;0.50;;;;;;;19.82;61.74;101660.50;5122495;28;20035;-59
2021/08/23 04:29:33;;;;;;;1.70;0.65;;;;;;;19.84;62.48;101661.13;5129105;28;20040;-60
2021/08/23 04:31:59;;;;;;;2.63;0.88;;;;;;;19.86;62.75;101660.16;5093393;28;20043;-61
2021/08/23 04:34:24;;;;;;;1.13;0.52;;;;;;;19.85;62.88;101659.31;5097865;28;20501;-59
2021/08/23 04:36:50;;;;;;;1.67;0.60;;;;;;;19.85;62.80;101659.31;5131832;28;20031;-59
2021/08/23 04:39:16;;;;;;;0.63;0.63;;;;;;;19.83;62.52;101667.53;5131868;28;20565;-59
2021/08/23 04:41:42;;;;;;;0.40;0.40;;;;;;;19.83;62.59;101672.91;5132400;28;20035;-59
2021/08/23 04:44:09;;;;;;;1.50;0.70;;;;;;;19.82;62.67;101665.03;5117088;28;20028;-59
2021/08/23 04:46:36;;;;;;;1.48;0.50;;;;;;;19.81;62.60;101669.53;5111484;28;20412;-59
2021/08/23 04:49:02;;;;;;;1.55;0.60;;;;;;;19.81;62.45;101668.72;5111426;28;20110;-59
2021/08/23 04:51:28;;;;;;;3.92;1.05;;;;;;;19.79;62.42;101668.91;5111499;28;20058;-60
2021/08/23 04:53:54;;;;;;;1.20;0.52;;;;;;;19.79;62.60;101674.28;5111200;28;20481;-59
2021/08/23 04:56:19;;;;;;;3.35;0.65;;;;;;;19.78;62.54;101677.94;5111386;28;20039;-59
2021/08/23 04:58:45;;;;;;;1.13;0.68;;;;;;;19.76;62.46;101674.63;5091669;28;20044;-59
2021/08/23 05:01:12;;;;;;;0.80;0.52;;;;;;;19.77;62.57;101687.00;5105393;28;20440;-59
2021/08/23 05:03:39;;;;;;;0.80;0.43;;;;;;;19.78;62.47;101691.34;5111394;28;20401;-59
2021/08/23 05:06:05;;;;;;;2.15;0.47;;;;;;;19.76;62.34;101685.34;5111147;28;20035;-60
2021/08/23 05:08:31;;;;;;;0.93;0.50;;;;;;;19.76;62.44;101687.19;5114691;28;20097;-59
2021/08/23 05:10:56;;;;;;;2.88;0.65;;;;;;;19.73;62.17;101695.59;5114646;28;20122;-59
2021/08/23 05:13:22;;;;;;;0.93;0.43;;;;;;;19.72;62.20;101697.41;5114576;28;20044;-59
2021/08/23 05:15:49;;;;;;;4.63;0.50;;;;;;;19.72;62.09;101700.09;5114584;28;20115;-59
2021/08/23 05:18:15;;;;;;;2.75;0.50;;;;;;;19.71;62.07;101691.25;5114464;28;20023;-59
2021/08/23 05:20:40;;;;;;;0.90;0.68;;;;;;;19.72;61.96;101694.75;5114540;28;20422;-60
2021/08/23 05:23:06;;;;;;;0.50;0.40;;;;;;;19.71;61.91;101703.81;5114477;28;20120;-59
2021/08/23 05:25:34;;;;;;;1.67;0.40;;;;;;;19.69;62.00;101700.47;5108271;28;20468;-60
2021/08/23 05:28:04;;;;;;;2.58;0.40;;;;;;;19.69;61.67;101703.13;5105153;28;20019;-59
2021/08/23 05:30:29;;;;;;;0.75;0.40;;;;;;;19.69;61.87;101705.81;5103274;28;20039;-58
2021/08/23 05:32:56;;;;;;;5.07;0.60;;;;;;;19.66;61.65;101707.00;5093728;28;20051;-59
2021/08/23 05:35:22;;;;;;;2.47;0.40;;;;;;;19.66;61.64;101706.16;5109814;28;20031;-59
2021/08/23 05:37:49;;;;;;;1.85;1.08;;;;;;;19.65;61.57;101708.00;5114457;28;20542;-59
2021/08/23 05:40:16;;;;;;;1.65;0.50;;;;;;;19.62;61.24;101711.03;5114131;28;20042;-59
2021/08/23 05:42:43;;;;;;;0.68;0.52;;;;;;;19.62;61.48;101710.22;5108432;28;20563;-59
2021/08/23 05:45:09;;;;;;;1.88;0.47;;;;;;;19.62;61.49;101708.34;5093660;28;20040;-59
2021/08/23 05:47:36;;;;;;;1.02;0.50;;;;;;;19.62;61.64;101716.41;5093580;28;20032;-59
2021/08/23 05:50:02;;;;;;;1.00;0.50;;;;;;;19.63;61.62;101714.56;5093814;28;20036;-59
2021/08/23 05:52:28;;;;;;;0.88;0.43;;;;;;;19.60;61.72;101718.44;5093453;28;20138;-59
2021/08/23 05:54:54;;;;;;;0.70;0.45;;;;;;;19.61;61.70;101722.78;5093742;28;20036;-59
2021/08/23 05:57:22;;;;;;;1.15;0.60;;;;;;;19.60;61.30;101726.47;5100835;28;20436;-59
2021/08/23 05:59:47;;;;;;;1.00;0.50;;;;;;;19.60;61.71;101729.16;5120135;27;20075;-59
2021/08/23 06:02:13;;;;;;;1.65;0.45;;;;;;;19.58;61.80;101726.66;5134567;27;20035;-59
2021/08/23 06:04:51;;;;;;;1.63;0.50;;;;;;;19.58;61.55;101728.50;5134540;27;20118;-59
2021/08/23 06:07:17;;;;;;;2.25;0.55;;;;;;;19.56;61.48;101731.34;5134191;27;20106;-59
2021/08/23 06:09:43;;;;;;;2.92;0.45;;;;;;;19.55;61.78;101729.69;5134065;27;20050;-59
2021/08/23 06:12:09;;;;;;;1.52;0.50;;;;;;;19.55;61.93;101734.19;5133965;27;20027;-58
2021/08/23 06:14:35;;;;;;;0.50;0.40;;;;;;;19.54;61.89;101736.03;5134360;27;20070;-59
2021/08/23 06:17:00;;;;;;;1.27;0.35;;;;;;;19.55;61.95;101732.38;5133508;27;20034;-59
2021/08/23 06:19:26;;;;;;;1.77;0.77;;;;;;;19.54;62.08;101728.00;5133909;27;20038;-59
2021/08/23 06:21:52;;;;;;;1.00;0.43;;;;;;;19.54;62.11;101744.09;5133925;27;20035;-59
2021/08/23 06:24:18;;;;;;;1.95;0.50;;;;;;;19.54;62.07;101743.25;5133777;27;20026;-59
2021/08/23 06:26:43;;;;;;;1.30;0.70;;;;;;;19.53;62.08;101742.41;5123811;27;20104;-59
2021/08/23 06:29:09;;;;;;;1.50;0.50;;;;;;;19.52;62.09;101742.59;5133689;27;20038;-59
2021/08/23 06:31:36;;;;;;;1.08;0.40;;;;;;;19.52;62.04;101750.63;5114334;27;20035;-59
2021/08/23 06:34:02;;;;;;;1.08;0.40;;;;;;;19.52;62.13;101756.00;5116796;27;20035;-59
2021/08/23 06:36:28;;;;;;;0.93;0.50;;;;;;;19.52;62.23;101750.63;5133654;27;20027;-59
2021/08/23 06:38:53;;;;;;;0.73;0.50;;;;;;;19.51;62.34;101757.84;5133581;27;20038;-59
2021/08/23 06:41:21;;;;;;;1.42;0.60;;;;;;;19.52;62.20;101753.31;5134172;27;20470;-59
2021/08/23 06:43:48;;;;;;;0.75;0.40;;;;;;;19.50;62.32;101750.81;5119118;27;20130;-60
2021/08/23 06:46:18;;;;;;;0.57;0.50;;;;;;;19.51;62.41;101760.53;5113090;27;20035;-60
2021/08/23 06:48:44;;;;;;;0.88;0.55;;;;;;;19.50;62.33;101758.00;5112557;28;20038;-59
2021/08/23 06:51:11;;;;;;;1.23;0.70;;;;;;;19.49;62.50;101753.66;5112803;28;20497;-59
2021/08/23 06:53:37;;;;;;;1.45;0.40;;;;;;;19.46;62.65;101754.84;5112618;28;20512;-59
2021/08/23 06:56:02;;;;;;;0.60;0.43;;;;;;;19.49;62.77;101764.38;5112711;27;20111;-60
2021/08/23 06:58:28;;;;;;;1.63;0.45;;;;;;;19.46;62.76;101766.41;5112890;27;20048;-60
2021/08/23 07:00:54;;;;;;;0.70;0.50;;;;;;;19.48;62.88;101757.38;5108926;27;20501;-59
2021/08/23 07:03:19;;;;;;;1.58;0.80;;;;;;;19.47;62.95;101761.88;5123481;27;20080;-59
2021/08/23 07:05:45;;;;;;;1.05;0.52;;;;;;;19.44;63.11;101759.53;5127265;27;20118;-60
2021/08/23 07:08:11;;;;;;;2.55;0.75;;;;;;;19.46;63.24;101762.91;5130235;27;20023;-60
2021/08/23 07:10:37;;;;;;;0.60;0.60;;;;;;;19.46;63.19;101766.41;5124694;27;20039;-58
2021/08/23 07:13:02;;;;;;;1.38;0.60;;;;;;;19.45;63.33;101771.94;5126919;27;20042;-59
2021/08/23 07:15:28;;;;;;;2.08;0.60;;;;;;;19.45;63.46;101764.72;5132551;27;20111;-60
2021/08/23 07:17:54;;;;;;;2.80;0.70;;;;;;;19.47;63.37;101761.88;5131587;27;20492;-58
2021/08/23 07:20:19;;;;;;;0.70;0.70;;;;;;;19.45;63.54;101761.22;5131916;27;20046;-60
2021/08/23 07:22:45;;;;;;;2.15;0.50;;;;;;;19.44;63.81;101771.13;5114019;27;20043;-60
2021/08/23 07:25:11;;;;;;;1.70;0.77;;;;;;;19.44;63.85;101776.47;5131921;27;20023;-59
2021/08/23 07:27:36;;;;;;;1.60;0.50;;;;;;;19.44;63.96;101775.63;5132136;27;20035;-59
2021/08/23 07:30:03;;;;;;;1.60;0.60;;;;;;;19.42;64.08;101778.47;5131374;27;20050;-59
2021/08/23 07:32:29;;;;;;;2.05;0.80;;;;;;;19.43;64.20;101780.16;5132134;27;20146;-60
2021/08/23 07:34:55;;;;;;;1.52;0.60;;;;;;;19.43;64.32;101780.16;5118680;27;20092;-59
2021/08/23 07:37:21;;;;;;;0.70;0.50;;;;;;;19.45;64.19;101777.28;5131896;27;20031;-59
2021/08/23 07:39:47;;;;;;;0.73;0.50;;;;;;;19.45;64.41;101782.66;5132335;27;20042;-59
2021/08/23 07:42:13;;;;;;;1.85;0.50;;;;;;;19.44;64.68;101784.53;5131293;27;20055;-60
2021/08/23 07:44:40;;;;;;;1.63;0.70;;;;;;;19.43;64.63;101787.38;5127835;27;20065;-62
2021/08/23 07:47:06;;;;;;;2.78;0.80;;;;;;;19.42;64.96;101786.53;5129784;27;20035;-60
2021/08/23 07:49:33;;;;;;;0.90;0.70;;;;;;;19.44;65.27;101784.53;5130095;27;20042;-60
2021/08/23 07:51:59;;;;;;;3.42;1.45;;;;;;;19.43;64.79;101785.50;5129988;27;20038;-61
2021/08/23 07:54:25;;;;;;;3.05;1.15;;;;;;;19.45;64.79;101785.34;5129731;27;20039;-59
2021/08/23 07:56:50;;;;;;;3.63;1.15;;;;;;;19.46;64.79;101785.16;5129935;28;20521;-55
2021/08/23 07:59:16;;;;;;;1.48;0.80;;;;;;;19.44;65.01;101787.19;5131396;28;20035;-57
2021/08/23 08:01:42;;;;;;;1.67;0.75;;;;;;;19.46;65.13;101787.03;5113392;28;20039;-58
2021/08/23 08:04:07;;;;;;;1.10;1.00;;;;;;;19.44;65.25;101792.56;5131625;28;20035;-58
2021/08/23 08:06:33;;;;;;;2.60;1.17;;;;;;;19.42;65.31;101794.56;5131477;28;20031;-58
2021/08/23 08:09:01;;;;;;;3.42;1.05;;;;;;;19.42;65.36;101786.53;5131377;28;20038;-59
2021/08/23 08:11:27;;;;;;;5.82;1.10;;;;;;;19.45;65.62;101783.50;5131063;28;20027;-60
2021/08/23 08:13:53;;;;;;;3.10;0.80;;;;;;;19.54;66.13;101783.50;5128326;28;20034;-54
2021/08/23 08:16:19;;;;;;;7.90;1.00;;;;;;;19.63;66.09;101795.03;5130877;28;20031;-61
2021/08/23 08:18:45;;;;;;;6.80;1.00;;;;;;;19.62;65.28;101798.72;5131061;28;20039;-56
2021/08/23 08:21:11;;;;;;;4.07;1.02;;;;;;;19.59;65.33;101802.56;5131302;28;20396;-56
2021/08/23 08:23:37;;;;;;;1.67;0.80;;;;;;;19.60;65.59;101804.25;5131137;28;20031;-57
2021/08/23 08:26:02;;;;;;;3.10;0.90;;;;;;;19.58;65.77;101811.63;5131134;28;20095;-57
2021/08/23 08:28:28;;;;;;;0.70;0.60;;;;;;;19.56;65.88;101801.06;5129381;28;20035;-56
2021/08/23 08:30:54;;;;;;;2.78;1.00;;;;;;;19.58;66.01;101811.63;5131307;28;20500;-56
2021/08/23 08:33:20;;;;;;;1.48;0.95;;;;;;;19.55;66.23;101814.66;5128195;28;20036;-57
2021/08/23 08:35:45;;;;;;;3.58;1.10;;;;;;;19.57;66.82;101810.78;5112110;28;20493;-66
2021/08/23 08:38:11;;;;;;;5.55;1.02;;;;;;;19.58;66.74;101812.47;5130943;28;20038;-64
2021/08/23 08:40:37;;;;;;;1.48;0.95;;;;;;;19.58;66.71;101815.16;5113212;27;20031;-66
2021/08/23 08:43:03;;;;;;;2.78;1.00;;;;;;;19.60;66.88;101815.00;5134878;27;20100;-64
2021/08/23 08:45:30;;;;;;;3.70;1.10;;;;;;;19.61;66.91;101813.97;5135218;27;20032;-58
2021/08/23 08:48:02;;;;;;;3.75;1.10;;;;;;;19.61;66.96;101816.66;5116117;27;20032;-56
2021/08/23 08:50:30;;;;;;;2.55;1.10;;;;;;;19.63;67.03;101814.66;5132820;27;20031;-57
2021/08/23 08:52:56;;;;;;;1.67;1.17;;;;;;;19.65;66.89;101809.09;5114468;28;20402;-56
2021/08/23 08:55:22;;;;;;;2.47;1.30;;;;;;;19.65;67.40;101814.47;5114048;28;20053;-58
2021/08/23 08:57:47;;;;;;;6.57;1.38;;;;;;;19.67;67.75;101817.81;5126736;27;20054;-57
2021/08/23 09:00:14;;;;;;;5.03;1.73;;;;;;;19.70;67.77;101814.81;5135352;27;20090;-58
2021/08/23 09:02:52;;;;;;;1.65;1.13;;;;;;;19.69;67.73;101815.78;5134647;27;20055;-56
2021/08/23 09:05:18;;;;;;;3.13;1.52;;;;;;;19.68;67.97;101820.34;5115127;27;20104;-57
2021/08/23 09:07:48;;;;;;;7.80;1.10;;;;;;;19.67;68.46;101826.69;5114577;28;20039;-57
2021/08/23 09:10:21;;;;;;;1.40;1.30;;;;;;;19.68;68.83;101822.19;5114423;28;20047;-55
2021/08/23 09:12:58;;;;;;;2.28;1.60;;;;;;;19.69;69.16;101824.69;5113406;28;20400;-57
2021/08/23 09:15:24;;;;;;;2.25;1.63;;;;;;;19.71;69.27;101828.03;5133701;27;20027;-57
2021/08/23 09:18:05;;;;;;;2.13;1.40;;;;;;;19.74;69.68;101831.38;5134556;27;20038;-57
2021/08/23 09:20:32;;;;;;;4.47;1.50;;;;;;;19.75;69.73;101833.06;5134585;27;20046;-56
2021/08/23 09:23:43;;;;;;;3.25;1.50;;;;;;;19.76;69.97;101830.22;5118973;27;20032;-59
2021/08/23 09:26:12;;;;;;;5.63;1.40;;;;;;;19.81;70.10;101835.88;5096928;27;20454;-56
2021/08/23 09:28:39;;;;;;;2.63;1.40;;;;;;;19.83;69.81;101838.38;5124271;27;20040;-56
2021/08/23 09:31:10;;;;;;;3.90;1.30;;;;;;;19.86;69.77;101838.03;5125757;27;20481;-56
2021/08/23 09:33:46;;;;;;;3.30;1.55;;;;;;;19.89;69.97;101842.25;5130418;27;20039;-57
2021/08/23 09:36:19;;;;;;;5.75;1.50;;;;;;;19.89;70.37;101843.06;5134420;27;20038;-57
2021/08/23 09:38:56;;;;;;;4.22;1.42;;;;;;;19.92;69.65;101845.41;5134712;27;20042;-58
2021/08/23 09:41:23;;;;;;;2.33;1.30;;;;;;;19.93;69.77;101838.19;5134456;27;20110;-58
2021/08/23 09:43:59;;;;;;;5.28;1.75;;;;;;;19.94;69.92;101835.34;5121665;27;20047;-56
2021/08/23 09:46:25;;;;;;;3.75;1.55;;;;;;;19.96;70.11;101835.16;5113842;28;20122;-57
2021/08/23 09:48:52;;;;;;;2.92;1.80;;;;;;;19.94;70.20;101838.03;5119066;27;20023;-56
2021/08/23 09:51:39;;;;;;;16.25;4.25;;;;;;;19.99;70.40;101839.38;5134348;27;20035;-57
2021/08/23 09:54:10;;;;;;;9.15;3.20;;;;;;;20.00;70.07;101836.50;5133286;27;20033;-56
2021/08/23 09:56:53;;;;;;;8.77;2.33;;;;;;;20.04;69.91;101840.53;5126276;27;20039;-56
2021/08/23 09:59:27;;;;;;;7.63;3.17;;;;;;;20.04;69.81;101839.69;5114858;27;20054;-57
2021/08/23 10:01:55;;;;;;;5.93;2.30;;;;;;;20.07;69.53;101837.50;5130409;27;20458;-56
2021/08/23 10:04:22;;;;;;;7.95;2.55;;;;;;;20.08;69.63;101841.03;5133477;27;20031;-56
2021/08/23 10:06:51;;;;;;;10.43;2.97;;;;;;;20.10;69.73;101844.38;5133476;27;20473;-57
2021/08/23 10:09:23;;;;;;;9.00;2.65;;;;;;;20.11;69.75;101837.16;5131180;27;20552;-56
2021/08/23 10:11:54;;;;;;;5.55;2.00;;;;;;;20.12;69.76;101836.13;5130191;27;20047;-57
2021/08/23 10:14:20;;;;;;;5.63;2.33;;;;;;;20.13;69.58;101838.66;5124526;27;20088;-57
2021/08/23 10:16:46;;;;;;;5.40;2.22;;;;;;;20.14;69.65;101836.81;5119593;27;20034;-56
2021/08/23 10:19:12;;;;;;;4.15;2.60;;;;;;;20.16;69.83;101850.91;5131817;27;20423;-56
2021/08/23 10:21:42;;;;;;;2.33;1.83;;;;;;;20.17;69.58;101836.47;5132649;27;20035;-56
2021/08/23 10:24:09;;;;;;;6.03;2.15;;;;;;;20.17;69.62;101839.16;5132592;27;20031;-56
2021/08/23 10:26:43;;;;;;;5.60;2.10;;;;;;;20.19;69.41;101837.94;5126909;27;20031;-56
2021/08/23 10:29:10;;;;;;;6.15;2.25;;;;;;;20.20;69.18;101846.84;5129275;27;20038;-56
2021/08/23 10:31:39;;;;;;;6.65;2.03;;;;;;;20.21;69.02;101843.16;5125445;27;20063;-54
2021/08/23 10:34:17;;;;;;;2.30;2.10;;;;;;;20.23;68.83;101840.31;5113952;27;20038;-54
2021/08/23 10:36:49;;;;;;;5.13;2.30;;;;;;;20.22;68.75;101844.84;5133609;27;20106;-54
2021/08/23 10:39:23;;;;;;;5.88;2.10;;;;;;;20.23;68.33;101841.13;5115308;27;20205;-54
2021/08/23 10:41:50;;;;;;;5.00;2.40;;;;;;;20.26;67.83;101840.78;5133405;27;20046;-55
2021/08/23 10:44:31;;;;;;;6.40;2.15;;;;;;;20.27;68.23;101847.00;5118559;27;20031;-54
2021/08/23 10:47:07;;;;;;;2.75;2.10;;;;;;;20.28;68.22;101837.91;5118006;27;20035;-54
2021/08/23 10:49:47;;;;;;;2.38;2.13;;;;;;;20.29;68.38;101847.66;5112832;28;20401;-54
2021/08/23 10:52:15;;;;;;;3.55;2.33;;;;;;;20.29;68.37;101842.31;5112740;28;20104;-54
2021/08/23 10:54:48;;;;;;;3.83;2.67;;;;;;;20.30;68.20;101849.34;5112625;28;20027;-54
2021/08/23 10:57:20;;;;;;;6.55;2.45;;;;;;;20.31;68.29;101843.78;5112139;27;20051;-54
2021/08/23 10:59:49;;;;;;;7.00;2.90;;;;;;;20.33;68.17;101844.47;5113982;27;20036;-54
2021/08/23 11:02:31;;;;;;;6.20;2.47;;;;;;;20.35;68.15;101844.28;5133220;27;20043;-54
2021/08/23 11:04:58;;;;;;;7.55;3.30;;;;;;;20.36;67.90;101840.56;5133215;27;20460;-54
2021/08/23 11:07:26;;;;;;;7.00;2.80;;;;;;;20.37;67.66;101839.56;5129721;27;20035;-54
2021/08/23 11:10:21;;;;;;;5.32;2.67;;;;;;;20.38;66.97;101841.25;5113415;27;20039;-54
2021/08/23 11:12:51;;;;;;;5.65;2.70;;;;;;;20.40;67.22;101839.19;5101226;28;20071;-54
2021/08/23 11:15:20;;;;;;;5.38;3.20;;;;;;;20.43;67.34;101838.03;5123858;27;20027;-54
2021/08/23 11:18:12;;;;;;;6.22;3.22;;;;;;;20.46;67.55;101837.69;5119584;27;20065;-54
2021/08/23 11:20:41;;;;;;;8.15;4.30;;;;;;;20.46;68.00;101840.38;5125821;27;20491;-54
2021/08/23 11:23:10;;;;;;;6.55;3.33;;;;;;;20.48;67.43;101841.00;5127797;27;20071;-54
2021/08/23 11:25:39;;;;;;;6.30;3.25;;;;;;;20.50;67.42;101848.88;5114141;27;20035;-54
2021/08/23 11:28:08;;;;;;;8.82;3.13;;;;;;;20.54;67.50;101842.16;5113957;27;20042;-54